Time;durP1;ratioP1;P1;durP2;ratioP2;P2;SDS_P1;SDS_P2;PMS_P1;PMS_P2;Temp;Humidity;BMP_temperature;BMP_pressure;BME280_temperature;BME280_humidity;BME280_pressure;Samples;Min_cycle;Max_cycle;Signal;HPM_P1;HPM_P2
2022/08/11 00:01:27;;;;;;;0.50;0.50;;;;;;;19.84;44.41;101054.38;5026924;28;20139;-76
2022/08/11 00:04:01;;;;;;;0.35;0.35;;;;;;;19.81;45.23;101061.38;5039880;28;20036;-76
2022/08/11 00:06:31;;;;;;;0.40;0.40;;;;;;;19.70;45.02;101044.13;5033907;28;20418;-75
2022/08/11 00:08:58;;;;;;;1.88;0.55;;;;;;;19.68;45.44;101054.72;5037891;28;20141;-74
2022/08/11 00:11:38;;;;;;;1.02;0.40;;;;;;;19.65;45.69;101062.84;5007765;28;20033;-74
2022/08/11 00:14:13;;;;;;;0.82;0.60;;;;;;;19.57;45.78;101050.53;5038080;28;20025;-74
2022/08/11 00:16:40;;;;;;;0.98;0.52;;;;;;;19.54;46.01;101056.72;5035743;28;20030;-75
2022/08/11 00:19:07;;;;;;;1.08;0.65;;;;;;;19.47;45.81;101059.09;5035620;28;20029;-75
2022/08/11 00:21:40;;;;;;;0.63;0.50;;;;;;;19.39;46.21;101054.25;5006423;28;20043;-74
2022/08/11 00:24:07;;;;;;;1.70;0.70;;;;;;;19.33;47.01;101059.94;5042958;28;20351;-74
2022/08/11 00:26:35;;;;;;;2.42;0.70;;;;;;;19.29;46.77;101058.91;5033802;28;20029;-75
2022/08/11 00:29:08;;;;;;;4.20;0.90;;;;;;;19.22;46.85;101052.97;5043127;28;20021;-75
2022/08/11 00:31:35;;;;;;;0.68;0.68;;;;;;;19.18;47.30;101057.47;5046393;28;20042;-74
2022/08/11 00:34:03;;;;;;;0.88;0.70;;;;;;;19.15;47.15;101052.56;5041526;28;20028;-75
2022/08/11 00:36:38;;;;;;;0.60;0.60;;;;;;;19.07;46.98;101056.03;5038259;28;20079;-74
2022/08/11 00:39:06;;;;;;;0.63;0.40;;;;;;;19.02;47.82;101060.53;5031632;28;20021;-74
2022/08/11 00:41:44;;;;;;;2.10;1.00;;;;;;;19.00;48.49;101062.81;5031032;28;20068;-74
2022/08/11 00:44:36;;;;;;;3.88;1.05;;;;;;;18.95;48.89;101054.63;5037833;28;20026;-73
2022/08/11 00:47:28;;;;;;;2.15;1.05;;;;;;;18.87;48.72;101052.56;5020368;28;20024;-74
2022/08/11 00:50:26;;;;;;;2.63;1.17;;;;;;;18.87;49.42;101060.88;5006840;28;20033;-75
2022/08/11 00:53:30;;;;;;;1.15;1.00;;;;;;;18.83;50.04;101054.25;5016818;28;20033;-74
2022/08/11 00:55:55;;;;;;;1.77;1.02;;;;;;;18.79;49.83;101056.00;5039757;28;20096;-73
2022/08/11 00:58:45;;;;;;;1.75;0.95;;;;;;;18.74;51.02;101053.34;5037017;28;20053;-75
2022/08/11 01:01:16;;;;;;;4.53;0.93;;;;;;;18.66;50.27;101055.69;5038598;28;20028;-74
2022/08/11 01:04:10;;;;;;;0.88;0.73;;;;;;;18.62;51.03;101056.59;5021370;28;20164;-74
2022/08/11 01:07:01;;;;;;;0.70;0.70;;;;;;;18.54;51.48;101049.78;5037424;28;20506;-74
2022/08/11 01:09:59;;;;;;;2.33;1.00;;;;;;;18.50;51.55;101048.78;5034402;28;20080;-75
2022/08/11 01:12:48;;;;;;;1.65;0.90;;;;;;;18.47;52.05;101049.38;5021850;28;20033;-75
2022/08/11 01:15:46;;;;;;;1.58;0.98;;;;;;;18.41;52.30;101050.59;5038843;28;20032;-74
2022/08/11 01:18:32;;;;;;;3.35;1.30;;;;;;;18.36;53.52;101047.94;5033012;28;20029;-74
2022/08/11 01:21:16;;;;;;;2.70;1.13;;;;;;;18.27;53.12;101051.38;5037114;28;20103;-74
2022/08/11 01:23:44;;;;;;;4.00;0.93;;;;;;;18.20;53.14;101056.47;5040404;28;20045;-72
2022/08/11 01:26:22;;;;;;;0.70;0.63;;;;;;;18.13;53.15;101056.03;5037355;28;20029;-73
2022/08/11 01:29:24;;;;;;;1.10;1.00;;;;;;;18.06;53.55;101055.59;5040925;28;20037;-74
2022/08/11 01:32:28;;;;;;;1.05;0.85;;;;;;;17.96;53.63;101040.81;5026906;28;20025;-74
2022/08/11 01:35:14;;;;;;;1.45;0.95;;;;;;;17.92;53.49;101044.50;5038058;28;20048;-75
2022/08/11 01:37:58;;;;;;;1.13;0.80;;;;;;;17.86;53.25;101042.88;5036782;28;20029;-74
2022/08/11 01:40:51;;;;;;;0.73;0.60;;;;;;;17.79;53.49;101037.72;5038262;28;20490;-74
2022/08/11 01:46:45;;;;;;;0.55;0.50;;;;;;;17.66;53.87;101038.50;5034461;28;20096;-74
2022/08/11 01:49:41;;;;;;;0.98;0.90;;;;;;;17.60;53.89;101038.53;5036419;28;20503;-75
2022/08/11 01:52:19;;;;;;;0.52;0.47;;;;;;;17.57;53.75;101044.69;5033086;28;20018;-75
2022/08/11 01:55:13;;;;;;;0.95;0.50;;;;;;;17.51;54.23;101040.34;5041757;28;20023;-74
2022/08/11 01:57:52;;;;;;;1.00;0.70;;;;;;;17.48;54.37;101038.19;5019854;28;20025;-74
2022/08/11 02:00:21;;;;;;;0.73;0.60;;;;;;;17.47;54.57;101038.47;5037054;28;20079;-74
2022/08/11 02:03:00;;;;;;;0.80;0.70;;;;;;;17.44;54.77;101039.88;5037370;28;20032;-74
2022/08/11 02:05:40;;;;;;;1.25;0.70;;;;;;;17.41;55.77;101040.50;5016662;28;20026;-74
2022/08/11 02:08:34;;;;;;;2.75;1.30;;;;;;;17.40;57.16;101045.19;5038651;28;20049;-75
2022/08/11 02:11:29;;;;;;;3.25;1.25;;;;;;;17.33;56.89;101032.84;5031969;28;20034;-74
2022/08/11 02:14:20;;;;;;;1.40;0.80;;;;;;;17.28;56.46;101037.31;5017071;28;20708;-73
2022/08/11 02:16:54;;;;;;;0.70;0.60;;;;;;;17.23;56.36;101040.16;5035485;28;20033;-73
2022/08/11 02:25:37;;;;;;;4.07;1.13;;;;;;;17.11;57.33;101020.41;5043018;28;20493;-75
2022/08/11 02:28:11;;;;;;;3.88;0.93;;;;;;;17.13;57.68;101020.94;5023068;28;20033;-75
2022/08/11 02:33:21;;;;;;;1.75;1.00;;;;;;;17.10;57.89;101013.25;5037415;28;20021;-76
2022/08/11 02:33:37;;;;;;;4.97;1.73;;;;;;;17.10;58.86;101018.78;5036677;28;20048;-75
2022/08/11 02:36:07;;;;;;;3.25;1.20;;;;;;;17.07;58.91;101016.63;5018986;28;20187;-76
2022/08/11 02:39:04;;;;;;;1.77;1.40;;;;;;;17.03;58.65;101023.84;5035043;28;20112;-74
2022/08/11 02:44:54;;;;;;;1.85;1.17;;;;;;;16.93;59.16;101016.50;5038611;28;20501;-75
2022/08/11 02:49:52;;;;;;;2.58;1.23;;;;;;;16.87;58.95;101012.13;5036035;28;20033;-76
2022/08/11 02:50:38;;;;;;;2.20;1.05;;;;;;;16.83;59.47;101005.53;5032864;28;20029;-75
2022/08/11 02:53:19;;;;;;;5.22;1.58;;;;;;;16.85;60.01;101012.41;5039917;28;20071;-75
2022/08/11 02:56:02;;;;;;;3.20;1.40;;;;;;;16.81;60.50;101011.34;5017617;28;20421;-73
2022/08/11 02:58:42;;;;;;;3.72;1.90;;;;;;;16.81;61.42;101011.34;5019018;28;20033;-73
2022/08/11 03:01:18;;;;;;;2.88;1.40;;;;;;;16.79;61.21;101018.28;5035144;28;20060;-75
2022/08/11 03:04:00;;;;;;;4.50;1.50;;;;;;;16.73;62.10;101012.84;5036042;28;20029;-78
2022/08/11 03:06:37;;;;;;;3.42;1.35;;;;;;;16.73;61.79;101006.47;5038802;28;20021;-74
2022/08/11 03:09:23;;;;;;;3.25;1.60;;;;;;;16.71;62.18;101005.94;5038292;28;20038;-77
2022/08/11 03:18:44;;;;;;;1.48;1.00;;;;;;;16.60;62.86;101004.41;4994864;28;20066;-76
2022/08/11 03:21:21;;;;;;;1.30;1.20;;;;;;;16.52;62.46;101003.94;5004915;28;20128;-72
2022/08/11 03:24:17;;;;;;;1.77;1.10;;;;;;;16.45;63.00;100995.16;5020670;28;20072;-71
2022/08/11 03:26:55;;;;;;;3.05;1.27;;;;;;;16.37;63.20;101009.63;5028000;28;20080;-73
2022/08/11 03:29:36;;;;;;;3.00;1.42;;;;;;;16.32;63.57;101001.38;5019102;28;20049;-74
2022/08/11 03:32:10;;;;;;;2.83;1.52;;;;;;;16.33;63.61;101005.78;5033663;28;20049;-73
2022/08/11 03:34:39;;;;;;;2.20;1.60;;;;;;;16.29;64.30;101005.53;5033626;28;20052;-73
2022/08/11 03:37:52;;;;;;;4.90;1.80;;;;;;;16.29;64.59;101004.72;5036053;28;20384;-72
2022/08/11 03:41:41;;;;;;;1.20;1.10;;;;;;;16.25;64.64;101003.66;5023509;28;20065;-72
2022/08/11 03:43:24;;;;;;;1.67;1.40;;;;;;;16.23;65.30;101002.00;5036360;28;20156;-74
2022/08/11 03:46:11;;;;;;;6.55;2.20;;;;;;;16.17;66.31;100994.88;5027842;28;20037;-73
2022/08/11 03:48:59;;;;;;;6.28;1.63;;;;;;;16.16;65.45;101001.50;5034060;28;20053;-71
2022/08/11 03:51:50;;;;;;;2.13;1.30;;;;;;;16.09;65.42;100990.00;5029511;28;20052;-73
2022/08/11 03:54:25;;;;;;;1.85;1.20;;;;;;;16.08;65.56;100982.84;5024607;28;20060;-73
2022/08/11 03:57:12;;;;;;;1.70;0.93;;;;;;;16.03;65.30;100991.13;5033066;28;20025;-73
2022/08/11 04:00:18;;;;;;;1.33;0.88;;;;;;;15.95;65.21;100983.50;5033073;28;20097;-73
2022/08/11 04:02:43;;;;;;;;;;;;;;;15.88;65.14;100987.41;5015793;28;20105;-74
2022/08/11 04:05:35;;;;;;;1.50;1.20;;;;;;;15.92;65.32;100990.41;5029858;28;19948;-73
2022/08/11 04:08:03;;;;;;;2.65;1.42;;;;;;;15.91;65.68;100976.91;5023017;28;20661;-74
2022/08/11 04:11:00;;;;;;;1.73;1.20;;;;;;;15.90;65.33;100983.53;5012422;28;20137;-74
2022/08/11 04:13:26;;;;;;;0.70;0.70;;;;;;;15.84;65.58;100983.59;5012780;28;20034;-74
2022/08/11 04:16:11;;;;;;;0.88;0.88;;;;;;;15.80;65.17;100982.50;5012716;28;20056;-73
2022/08/11 04:19:03;;;;;;;1.83;0.98;;;;;;;15.75;65.32;100978.94;4996540;28;20466;-74
2022/08/11 04:21:51;;;;;;;1.40;0.82;;;;;;;15.76;65.92;100984.16;5012034;28;20046;-74
2022/08/11 04:24:35;;;;;;;0.82;0.80;;;;;;;15.75;65.90;100978.94;5013238;28;20023;-73
2022/08/11 04:27:12;;;;;;;2.15;1.70;;;;;;;15.77;66.73;100976.69;5007058;28;20026;-74
2022/08/11 04:30:16;;;;;;;1.23;1.02;;;;;;;15.76;66.01;100981.41;5014259;28;20551;-74
2022/08/11 04:33:06;;;;;;;1.52;1.10;;;;;;;15.78;66.32;100978.34;4955986;28;20066;-73
2022/08/11 04:35:53;;;;;;;1.67;1.20;;;;;;;15.75;66.13;100974.25;5015056;28;20029;-73
2022/08/11 04:38:37;;;;;;;1.50;1.00;;;;;;;15.75;65.93;100985.25;4993644;28;20121;-74
2022/08/11 04:44:49;;;;;;;1.65;1.45;;;;;;;15.78;66.54;100984.72;5003848;28;20092;-74
2022/08/11 05:03:12;;;;;;;2.03;1.80;;;;;;;15.99;66.97;100979.03;5015949;28;20131;-74
2022/08/11 05:06:11;;;;;;;1.85;1.55;;;;;;;16.07;67.07;100985.88;5018194;28;20080;-74
2022/08/11 05:08:53;;;;;;;2.15;1.17;;;;;;;16.17;66.35;100986.59;5021732;28;20050;-75
2022/08/11 05:11:57;;;;;;;2.00;1.10;;;;;;;16.39;65.76;100988.06;5014918;28;20121;-75
2022/08/11 05:37:14;;;;;;;4.32;1.98;;;;;;;17.38;63.06;100996.84;5019861;28;20039;-74
2022/08/11 05:56:58;;;;;;;1.77;1.20;;;;;;;17.98;60.66;100998.19;5015875;28;20049;-73
2022/08/11 05:59:27;;;;;;;2.33;1.30;;;;;;;18.08;60.80;100998.03;5018230;28;20363;-72
2022/08/11 06:01:59;;;;;;;2.92;1.35;;;;;;;18.16;60.18;101000.06;4996415;28;20374;-72
2022/08/11 06:04:25;;;;;;;1.77;1.10;;;;;;;18.27;59.90;101004.31;5011803;28;20353;-74
2022/08/11 06:06:55;;;;;;;2.45;1.40;;;;;;;18.34;60.25;101001.16;4993989;28;20092;-72
2022/08/11 06:09:49;;;;;;;2.05;1.42;;;;;;;18.44;59.82;101002.91;5030742;28;20048;-73
2022/08/11 06:12:32;;;;;;;1.45;1.35;;;;;;;18.60;59.86;100998.75;5030079;28;20048;-75
2022/08/11 06:15:03;;;;;;;2.00;1.63;;;;;;;18.84;58.78;100993.00;4996210;28;20026;-75
2022/08/11 06:17:35;;;;;;;1.95;1.50;;;;;;;19.03;58.37;101000.41;5015832;28;20492;-77
2022/08/11 06:20:11;;;;;;;2.08;1.48;;;;;;;19.23;57.64;100999.16;5019830;28;20033;-75
2022/08/11 06:22:40;;;;;;;1.52;1.35;;;;;;;19.41;57.52;101010.41;5010899;28;20048;-74
2022/08/11 06:25:08;;;;;;;4.03;1.85;;;;;;;19.55;56.57;101000.09;5032974;28;20017;-75
2022/08/11 06:27:37;;;;;;;3.17;1.90;;;;;;;19.63;56.51;101002.13;5029182;28;20060;-74
2022/08/11 06:30:23;;;;;;;2.08;1.60;;;;;;;19.73;55.84;101000.22;5028362;28;20868;-73
2022/08/11 06:32:54;;;;;;;2.67;1.20;;;;;;;19.78;56.01;101003.75;5029787;28;20033;-74
2022/08/11 06:36:06;;;;;;;5.15;1.50;;;;;;;19.83;55.93;101005.56;5028011;28;20040;-73
2022/08/11 06:38:59;;;;;;;3.83;1.88;;;;;;;19.99;55.61;101004.06;5000265;28;20128;-74
2022/08/11 06:41:52;;;;;;;;;;;;;;;;;;;;;
2022/08/11 06:44:38;;;;;;;1.92;1.38;;;;;;;20.06;55.23;101011.94;5031055;28;20045;-72
2022/08/11 06:47:08;;;;;;;1.92;1.40;;;;;;;20.09;54.87;101010.50;5031220;28;20055;-71
2022/08/11 06:52:34;;;;;;;3.38;2.00;;;;;;;20.47;54.56;101007.28;5033060;28;20064;-73
2022/08/11 06:55:09;;;;;;;3.83;2.00;;;;;;;20.67;53.52;101003.97;5027055;28;20056;-72
2022/08/11 07:00:29;;;;;;;3.33;1.70;;;;;;;20.86;52.79;100992.59;5032127;28;20068;-72
2022/08/11 07:03:11;;;;;;;3.17;1.80;;;;;;;20.98;52.69;101003.09;4995405;28;20038;-72
2022/08/11 07:05:36;;;;;;;2.08;1.40;;;;;;;21.08;52.52;100999.22;5032343;28;20037;-72
2022/08/11 07:16:57;;;;;;;2.67;1.73;;;;;;;21.53;51.24;101003.75;5029600;28;20052;-73
2022/08/11 07:31:02;;;;;;;2.53;1.80;;;;;;;21.82;50.76;101005.06;5032082;28;20056;-73
2022/08/11 07:33:39;;;;;;;2.88;1.30;;;;;;;21.86;51.04;100997.66;5030011;28;20021;-72
2022/08/11 07:36:11;;;;;;;2.85;1.70;;;;;;;21.95;50.76;101006.84;5031154;28;20034;-73
2022/08/11 07:38:44;;;;;;;2.50;1.55;;;;;;;22.08;50.72;101014.19;5030808;28;20026;-72
2022/08/11 07:41:12;;;;;;;4.10;2.23;;;;;;;22.19;50.74;101013.84;5028137;28;20053;-73
2022/08/11 07:43:40;;;;;;;3.00;1.67;;;;;;;22.28;50.36;101011.84;5027725;28;20692;-72
2022/08/11 07:54:23;;;;;;;3.65;1.52;;;;;;;22.64;49.87;101002.25;5027155;28;20072;-71
2022/08/11 07:56:49;;;;;;;1.25;1.05;;;;;;;22.84;49.77;101012.66;5033777;28;20021;-75
2022/08/11 08:18:33;;;;;;;3.28;1.20;;;;;;;24.14;47.00;100998.13;5016880;28;20080;-75
2022/08/11 08:21:10;;;;;;;2.58;1.23;;;;;;;24.22;47.02;100996.38;5000773;28;20025;-74
2022/08/11 08:23:38;;;;;;;5.10;1.30;;;;;;;24.32;46.98;101006.31;5003632;28;20029;-73
2022/08/11 08:30:46;;;;;;;1.48;0.77;;;;;;;24.50;46.88;101001.34;4974246;28;20440;-73
2022/08/11 08:31:44;;;;;;;1.33;0.65;;;;;;;24.61;46.21;101001.75;5014232;28;20376;-72
2022/08/11 08:34:12;;;;;;;1.55;0.70;;;;;;;24.73;46.54;100999.75;4981492;28;20037;-74
2022/08/11 08:36:42;;;;;;;3.00;1.00;;;;;;;24.83;45.84;100995.69;4999614;28;20034;-72
2022/08/11 08:39:07;;;;;;;1.05;0.90;;;;;;;24.94;45.37;101004.44;5015756;28;20022;-71
2022/08/11 08:41:37;;;;;;;1.65;1.20;;;;;;;25.07;45.18;100997.66;5011736;28;20476;-71
2022/08/11 08:44:07;;;;;;;2.10;0.90;;;;;;;25.17;45.46;100995.56;5013436;28;20786;-71
2022/08/11 08:46:42;;;;;;;3.22;0.90;;;;;;;25.33;45.02;100998.47;5012879;28;20065;-71
2022/08/11 08:49:13;;;;;;;0.98;0.70;;;;;;;25.47;44.43;101000.91;5014932;28;20029;-70
2022/08/11 08:51:42;;;;;;;1.10;0.82;;;;;;;25.57;44.84;100987.22;5013755;28;20050;-71
2022/08/11 08:54:16;;;;;;;2.50;1.08;;;;;;;25.67;44.08;100985.06;5011080;28;20017;-70
2022/08/11 08:56:44;;;;;;;5.93;0.90;;;;;;;25.79;44.33;100990.63;4997981;28;20041;-70
2022/08/11 08:59:12;;;;;;;3.13;1.10;;;;;;;25.88;43.66;100984.88;5016472;28;20017;-71
2022/08/11 09:02:03;;;;;;;1.58;0.80;;;;;;;26.02;43.48;100990.91;5013373;28;20391;-72
2022/08/11 09:04:29;;;;;;;1.60;0.95;;;;;;;26.13;43.29;100982.78;4982633;28;20030;-71
2022/08/11 09:06:58;;;;;;;1.45;0.80;;;;;;;26.25;42.89;100982.72;4997199;28;20044;-70
2022/08/11 09:09:26;;;;;;;0.80;0.60;;;;;;;26.38;42.26;100980.66;5028456;28;20482;-71
2022/08/11 09:11:52;;;;;;;1.33;0.65;;;;;;;26.52;42.33;100984.97;5035727;28;20467;-71
2022/08/11 09:17:19;;;;;;;0.90;0.70;;;;;;;26.80;41.31;100984.94;5034673;28;20395;-73
2022/08/11 09:19:47;;;;;;;4.35;0.90;;;;;;;26.93;41.31;100980.84;5016638;28;20025;-73
2022/08/11 09:27:50;;;;;;;2.80;0.70;;;;;;;27.43;39.80;100986.00;5038408;28;20653;-75
2022/08/11 09:30:19;;;;;;;1.23;1.02;;;;;;;28.11;38.96;100986.56;5011602;28;20037;-73
2022/08/11 09:32:45;;;;;;;1.20;0.82;;;;;;;29.28;36.38;100972.06;5027606;28;20032;-72
2022/08/11 09:35:11;;;;;;;2.97;1.02;;;;;;;30.66;34.13;100974.38;5003132;28;20175;-71
2022/08/11 09:40:30;;;;;;;1.00;0.75;;;;;;;33.00;30.32;100976.00;5006164;28;20182;-75
2022/08/11 09:45:50;;;;;;;0.88;0.75;;;;;;;34.30;28.31;100980.31;5018535;28;20056;-73
2022/08/11 09:48:17;;;;;;;1.40;1.02;;;;;;;34.58;27.62;100979.28;5004410;28;20021;-72
2022/08/11 09:50:47;;;;;;;1.42;0.80;;;;;;;34.84;27.36;100986.34;5000601;28;20029;-73
2022/08/11 09:53:15;;;;;;;2.33;0.98;;;;;;;35.26;27.19;100978.59;5038401;28;20507;-73
2022/08/11 09:55:40;;;;;;;2.75;0.77;;;;;;;35.25;26.06;100970.50;5017472;28;20035;-72
2022/08/11 09:58:12;;;;;;;2.05;1.15;;;;;;;35.08;25.89;100983.69;5014288;28;20411;-72
2022/08/11 10:00:39;;;;;;;3.90;1.85;;;;;;;34.77;26.56;100972.22;5015554;28;20037;-72
2022/08/11 10:03:25;;;;;;;1.27;0.90;;;;;;;34.85;26.77;100970.94;5015192;28;20411;-74
2022/08/11 10:08:50;;;;;;;1.05;0.90;;;;;;;34.68;25.96;100981.22;4985739;28;1253433;-73
2022/08/11 10:11:20;;;;;;;1.73;0.90;;;;;;;34.48;25.88;100969.63;5015537;28;20033;-73
2022/08/11 10:16:38;;;;;;;1.35;1.00;;;;;;;34.37;25.88;100974.59;5017214;28;20071;-73
2022/08/11 10:19:05;;;;;;;1.20;0.73;;;;;;;34.44;26.11;100977.38;5019679;28;20026;-72
2022/08/11 10:21:36;;;;;;;1.48;0.90;;;;;;;34.38;25.95;100976.22;4999757;28;20072;-74
2022/08/11 10:26:53;;;;;;;3.38;1.20;;;;;;;38.57;21.26;100976.72;4999680;28;20052;-74
2022/08/11 10:34:55;;;;;;;1.08;0.82;;;;;;;52.86;11.27;100962.47;5011812;28;20040;-74
2022/08/11 10:37:23;;;;;;;0.63;0.63;;;;;;;55.30;9.49;100961.41;5017171;28;20029;-76
2022/08/11 10:39:50;;;;;;;0.70;0.70;;;;;;;56.82;8.05;100964.31;5012585;28;20018;-75
2022/08/11 10:47:33;;;;;;;5.53;1.00;;;;;;;59.14;6.56;100946.16;5012829;28;20036;-74
2022/08/11 10:47:53;;;;;;;1.73;1.10;;;;;;;59.41;5.65;100940.44;5013213;28;20033;-75
2022/08/11 10:58:46;;;;;;;0.93;0.70;;;;;;;61.14;4.47;100936.31;5011033;28;20080;-73
2022/08/11 11:01:13;;;;;;;0.80;0.80;;;;;;;61.71;4.84;100928.22;5011803;28;20032;-73
2022/08/11 11:03:40;;;;;;;1.08;0.93;;;;;;;62.35;3.69;100927.88;5014836;28;20075;-74
2022/08/11 11:06:25;;;;;;;1.23;0.80;;;;;;;62.12;3.94;100914.31;5021686;28;20026;-74
2022/08/11 11:08:57;;;;;;;5.43;1.25;;;;;;;62.32;3.59;100911.38;5014735;28;20050;-76
2022/08/11 11:19:39;;;;;;;1.05;0.90;;;;;;;62.42;3.01;100899.47;5018283;28;20476;-76
2022/08/11 11:25:22;;;;;;;3.95;1.27;;;;;;;62.97;3.21;100881.97;4994579;28;20081;-75
2022/08/11 11:28:17;;;;;;;1.00;0.80;;;;;;;63.60;2.98;100894.50;4976448;28;20042;-75
2022/08/11 11:31:17;;;;;;;5.20;1.00;;;;;;;63.74;2.27;100882.88;5004279;28;20018;-75
2022/08/11 11:33:48;;;;;;;1.00;0.70;;;;;;;64.23;2.81;100888.28;5007311;28;20062;-73
2022/08/11 11:36:40;;;;;;;0.60;0.60;;;;;;;64.68;2.54;100875.59;5004934;28;20080;-74
2022/08/11 11:39:07;;;;;;;1.52;0.95;;;;;;;65.08;2.06;100884.78;5015888;28;20116;-74
2022/08/11 11:41:36;;;;;;;0.77;0.77;;;;;;;65.34;2.55;100882.63;5010017;28;20034;-74
2022/08/11 11:44:03;;;;;;;0.70;0.60;;;;;;;65.40;1.82;100880.03;5013479;28;20467;-75
2022/08/11 11:46:30;;;;;;;0.85;0.73;;;;;;;65.67;1.88;100872.72;5016105;28;20112;-73
2022/08/11 11:48:57;;;;;;;0.80;0.70;;;;;;;65.58;1.54;100870.66;4996112;28;20653;-74
2022/08/11 11:51:24;;;;;;;1.42;0.80;;;;;;;65.71;2.00;100864.81;5014731;28;20034;-74
2022/08/11 11:53:50;;;;;;;0.95;0.75;;;;;;;66.29;1.67;100855.41;4982387;28;20023;-74
2022/08/11 11:56:17;;;;;;;3.88;1.00;;;;;;;66.28;1.34;100856.84;5009742;28;20022;-75
2022/08/11 12:01:30;;;;;;;1.67;1.00;;;;;;;65.49;1.34;100852.34;5020800;28;20044;-75
2022/08/11 12:03:57;;;;;;;1.02;0.57;;;;;;;66.39;1.27;100858.97;5004548;28;20076;-75
2022/08/11 12:06:26;;;;;;;0.82;0.80;;;;;;;66.92;1.11;100864.06;5019138;28;20072;-75
2022/08/11 12:08:56;;;;;;;0.60;0.60;;;;;;;67.04;0.89;100846.88;5017605;28;20046;-76
2022/08/11 12:14:17;;;;;;;1.33;1.00;;;;;;;66.07;0.89;100831.88;5019959;28;20029;-73
2022/08/11 12:16:54;;;;;;;0.70;0.60;;;;;;;65.17;1.54;100825.16;5017021;28;20034;-75
2022/08/11 12:19:23;;;;;;;1.63;0.80;;;;;;;64.82;1.61;100817.09;5018314;28;20033;-73
2022/08/11 12:27:27;;;;;;;1.08;0.90;;;;;;;67.41;0.52;100818.19;5017473;28;20032;-76
2022/08/11 12:29:58;;;;;;;0.75;0.70;;;;;;;67.13;0.26;100815.28;4996765;28;20026;-75
2022/08/11 12:32:27;;;;;;;1.60;1.02;;;;;;;66.74;0.54;100801.31;4998185;28;20033;-74
2022/08/11 12:34:55;;;;;;;0.90;0.80;;;;;;;66.63;0.28;100811.09;5006182;28;20022;-74
2022/08/11 12:37:28;;;;;;;1.05;0.77;;;;;;;66.77;0.62;100805.94;4998119;28;20033;-75
2022/08/11 12:45:30;;;;;;;0.80;0.65;;;;;;;66.61;0.83;100805.06;5015555;28;20044;-76
2022/08/11 12:54:26;;;;;;;;;;;;;;;;;;;;;
2022/08/11 13:05:53;;;;;;;1.58;1.00;;;;;;;68.34;0.08;100777.88;5021452;28;20061;-76
2022/08/11 13:08:20;;;;;;;1.05;0.93;;;;;;;68.18;0.00;100771.91;5000086;28;20045;-75
2022/08/11 13:13:36;;;;;;;0.93;0.80;;;;;;;69.27;0.00;100768.53;5034620;28;20116;-74
2022/08/11 13:16:01;;;;;;;1.23;0.90;;;;;;;68.96;0.00;100761.22;5017020;28;20021;-75
2022/08/11 13:18:28;;;;;;;1.20;1.08;;;;;;;68.47;0.00;100756.09;5036120;28;20087;-76
2022/08/11 13:20:55;;;;;;;1.00;0.90;;;;;;;68.57;0.04;100753.56;5022966;28;20121;-76
2022/08/11 13:23:24;;;;;;;1.08;0.98;;;;;;;68.36;0.00;100751.84;5035017;28;20044;-74
2022/08/11 13:25:53;;;;;;;2.28;1.30;;;;;;;68.11;0.00;100746.97;5034819;28;20021;-75
2022/08/11 13:28:20;;;;;;;4.18;0.80;;;;;;;68.27;0.26;100750.69;5028689;28;20033;-74
2022/08/11 13:33:32;;;;;;;1.00;0.90;;;;;;;68.15;0.00;100753.13;5035626;28;20108;-75
2022/08/11 13:35:59;;;;;;;1.48;0.90;;;;;;;68.28;0.00;100740.31;5022216;28;20116;-73
2022/08/11 13:38:25;;;;;;;1.13;0.80;;;;;;;68.28;0.00;100752.28;5036521;28;20041;-74
2022/08/11 13:40:53;;;;;;;0.80;0.80;;;;;;;68.11;0.00;100744.00;5023838;28;20033;-75
2022/08/11 13:43:21;;;;;;;1.77;0.80;;;;;;;67.75;0.00;100743.75;5025615;28;20025;-75
2022/08/11 13:45:47;;;;;;;0.70;0.70;;;;;;;67.91;0.00;100744.53;5038087;28;20467;-75
2022/08/11 13:48:14;;;;;;;0.98;0.80;;;;;;;67.78;0.00;100745.41;5022027;28;20402;-75
2022/08/11 13:53:28;;;;;;;0.85;0.85;;;;;;;68.24;0.00;100740.09;5027501;28;20041;-76
2022/08/11 13:55:55;;;;;;;1.05;0.73;;;;;;;67.98;0.00;100744.84;5029909;28;20520;-75
2022/08/11 13:58:22;;;;;;;1.65;0.90;;;;;;;68.55;0.05;100744.50;5030057;28;20068;-75
2022/08/11 14:00:50;;;;;;;3.33;1.10;;;;;;;69.14;0.00;100740.34;5023112;28;20029;-75
2022/08/11 14:03:22;;;;;;;3.17;0.98;;;;;;;69.12;0.00;100743.22;4999014;28;20072;-77
2022/08/11 14:05:51;;;;;;;1.33;0.95;;;;;;;68.46;0.00;100731.41;5034001;28;20064;-77
2022/08/11 14:08:22;;;;;;;1.27;1.02;;;;;;;68.76;0.00;100733.44;5018839;28;20053;-78
2022/08/11 14:13:36;;;;;;;1.10;1.00;;;;;;;68.47;0.00;100732.19;5033588;28;20026;-75
2022/08/11 14:13:39;;;;;;;1.60;1.05;;;;;;;68.72;0.00;100730.25;5032122;28;20047;-75
2022/08/11 14:16:10;;;;;;;0.80;0.80;;;;;;;68.82;0.00;100736.72;5030645;28;20033;-77
2022/08/11 14:18:41;;;;;;;2.55;1.00;;;;;;;68.18;0.00;100721.91;5013679;28;20036;-75
2022/08/11 14:23:58;;;;;;;1.08;0.95;;;;;;;68.54;0.00;100724.28;5033512;28;20128;-75
2022/08/11 14:26:27;;;;;;;0.85;0.85;;;;;;;68.79;0.00;100726.09;5034347;28;20034;-74
2022/08/11 14:28:59;;;;;;;1.10;1.00;;;;;;;68.83;0.00;100720.31;5031368;28;20041;-77
2022/08/11 14:31:27;;;;;;;1.27;1.10;;;;;;;68.56;0.00;100704.22;5033372;28;20021;-75
2022/08/11 14:33:59;;;;;;;1.15;0.90;;;;;;;68.65;0.00;100705.34;5032880;28;20029;-74
2022/08/11 14:36:27;;;;;;;1.00;1.00;;;;;;;68.86;0.00;100712.97;4999786;28;20042;-76
2022/08/11 14:38:53;;;;;;;1.30;1.20;;;;;;;68.64;0.00;100703.81;5017003;28;20040;-75
2022/08/11 14:47:06;;;;;;;1.05;1.02;;;;;;;65.75;0.29;100700.63;5032529;28;20091;-74
2022/08/11 14:49:35;;;;;;;1.33;1.02;;;;;;;64.25;1.05;100682.84;5007299;28;20029;-74
2022/08/11 14:52:08;;;;;;;0.85;0.85;;;;;;;64.28;0.81;100672.66;5035373;28;20025;-74
2022/08/11 14:57:22;;;;;;;1.08;0.90;;;;;;;65.25;0.66;100682.16;5028822;28;20099;-75
2022/08/11 14:59:49;;;;;;;1.10;1.00;;;;;;;65.38;0.58;100671.78;5017949;28;20047;-75
2022/08/11 15:05:01;;;;;;;0.75;0.75;;;;;;;65.88;0.59;100679.06;5035788;28;20056;-75
2022/08/11 15:07:31;;;;;;;0.80;0.80;;;;;;;66.26;0.56;100681.06;5021727;28;20091;-75
2022/08/11 15:10:02;;;;;;;3.20;1.10;;;;;;;66.31;0.34;100677.66;5033538;28;20065;-75
2022/08/11 15:12:29;;;;;;;1.13;1.00;;;;;;;65.98;0.45;100684.03;5019355;28;20025;-75
2022/08/11 15:17:39;;;;;;;1.20;1.20;;;;;;;65.27;0.49;100666.63;5032949;28;20036;-75
2022/08/11 15:25:41;;;;;;;3.85;0.93;;;;;;;63.78;1.20;100648.75;5038324;28;20582;-73
2022/08/11 15:37:25;;;;;;;0.90;0.88;;;;;;;63.30;1.28;100632.28;5031501;28;20044;-75
2022/08/11 15:45:47;;;;;;;0.73;0.73;;;;;;;62.73;1.47;100629.19;5034346;28;20337;-76
2022/08/11 15:48:18;;;;;;;0.80;0.80;;;;;;;63.04;1.11;100625.38;5031295;28;20025;-74
2022/08/11 15:50:51;;;;;;;0.88;0.80;;;;;;;62.92;1.33;100625.34;5028343;28;20483;-75
2022/08/11 15:53:30;;;;;;;1.25;1.13;;;;;;;62.19;1.53;100627.69;5032780;28;20502;-75
2022/08/11 15:55:58;;;;;;;2.08;1.00;;;;;;;61.44;2.10;100619.44;5018775;28;20088;-76
2022/08/11 16:04:12;;;;;;;1.17;1.00;;;;;;;60.04;2.35;100623.50;5030742;28;20064;-75
2022/08/11 16:07:14;;;;;;;1.60;0.80;;;;;;;59.95;2.48;100620.50;5027761;28;20038;-75
2022/08/11 16:09:58;;;;;;;1.20;0.80;;;;;;;59.68;2.52;100622.09;5028719;28;20041;-75
2022/08/11 16:12:27;;;;;;;1.35;1.00;;;;;;;59.16;2.90;100619.25;5026212;28;20056;-74
2022/08/11 16:17:48;;;;;;;1.63;0.90;;;;;;;57.44;3.07;100620.53;5029542;28;20033;-76
2022/08/11 16:20:18;;;;;;;3.80;0.90;;;;;;;56.48;3.49;100613.19;5013799;28;20115;-74
2022/08/11 16:22:46;;;;;;;0.80;0.80;;;;;;;56.52;3.61;100607.69;5034271;28;20033;-74
2022/08/11 16:25:16;;;;;;;1.10;0.93;;;;;;;56.71;3.48;100606.50;5030746;28;20502;-77
2022/08/11 16:27:45;;;;;;;0.60;0.50;;;;;;;56.68;3.41;100605.53;5014262;28;20037;-76
2022/08/11 16:30:13;;;;;;;4.60;0.80;;;;;;;56.50;3.40;100607.50;5029545;28;20040;-75
2022/08/11 16:32:42;;;;;;;0.98;0.73;;;;;;;55.81;3.93;100608.25;5032169;28;20031;-76
2022/08/11 16:40:51;;;;;;;0.85;0.80;;;;;;;55.02;4.21;100601.94;5016642;28;21838;-75
2022/08/11 16:48:54;;;;;;;0.98;0.80;;;;;;;54.06;4.45;100590.66;5029875;28;20044;-75
2022/08/11 16:51:20;;;;;;;0.60;0.60;;;;;;;54.00;4.75;100599.56;5014624;28;20038;-75
2022/08/11 16:53:48;;;;;;;1.08;0.70;;;;;;;54.17;4.76;100599.16;5012980;28;20022;-77